Time;durP1;ratioP1;P1;durP2;ratioP2;P2;SDS_P1;SDS_P2;PMS_P1;PMS_P2;Temp;Humidity;BMP_temperature;BMP_pressure;BME280_temperature;BME280_humidity;BME280_pressure;Samples;Min_cycle;Max_cycle;Signal;HPM_P1;HPM_P2
2023/09/20 00:01:01;;;;;;;8.90;3.15;;;;;;;18.51;98.82;100756.56;5072978;28;20045;-62
2023/09/20 00:03:50;;;;;;;9.73;3.38;;;;;;;18.50;98.56;100758.50;5074887;28;20400;-64
2023/09/20 00:06:38;;;;;;;8.23;2.67;;;;;;;18.50;98.32;100760.47;5073814;28;20044;-64
2023/09/20 00:09:26;;;;;;;10.52;3.40;;;;;;;18.42;98.89;100764.81;5042214;28;20053;-63
2023/09/20 00:12:14;;;;;;;8.10;2.90;;;;;;;18.42;99.48;100758.47;5070439;28;20056;-63
2023/09/20 00:15:03;;;;;;;6.60;2.70;;;;;;;18.53;99.38;100759.81;5067787;28;20049;-64
2023/09/20 00:17:54;;;;;;;9.35;3.10;;;;;;;18.51;99.31;100756.56;5053440;28;20520;-63
2023/09/20 00:20:42;;;;;;;8.82;2.78;;;;;;;18.49;99.25;100756.88;5061579;28;20052;-63
2023/09/20 00:23:31;;;;;;;7.90;3.10;;;;;;;18.39;99.50;100759.94;5073061;28;20121;-63
2023/09/20 00:26:19;;;;;;;8.77;3.17;;;;;;;18.43;100.00;100760.94;5063096;28;20044;-62
2023/09/20 00:29:10;;;;;;;8.55;2.90;;;;;;;18.46;100.00;100759.47;5054409;28;20378;-62
2023/09/20 00:31:58;;;;;;;9.05;3.20;;;;;;;18.58;99.04;100753.31;5074106;28;20496;-63
2023/09/20 00:34:46;;;;;;;9.13;3.00;;;;;;;18.57;99.09;100757.19;5059202;28;20194;-63
2023/09/20 00:37:35;;;;;;;11.73;2.75;;;;;;;18.52;99.35;100758.19;5059875;28;20051;-63
2023/09/20 00:40:23;;;;;;;8.73;2.97;;;;;;;18.54;99.43;100750.38;5074539;28;20044;-65
2023/09/20 00:43:11;;;;;;;7.30;2.50;;;;;;;18.57;99.05;100754.44;5046494;28;20101;-63
2023/09/20 00:46:03;;;;;;;7.03;2.83;;;;;;;18.50;99.42;100754.94;5063238;28;20468;-62
2023/09/20 00:48:54;;;;;;;7.75;3.08;;;;;;;18.45;99.75;100744.06;5028377;28;20041;-64
2023/09/20 00:51:45;;;;;;;8.25;2.83;;;;;;;18.47;99.66;100753.66;5063108;28;20049;-63
2023/09/20 00:54:33;;;;;;;8.93;2.92;;;;;;;18.41;99.69;100752.16;5052757;28;20045;-63
2023/09/20 00:57:21;;;;;;;7.97;2.70;;;;;;;18.32;100.00;100748.56;5053747;28;20493;-63
2023/09/20 01:00:19;;;;;;;10.25;3.30;;;;;;;18.36;100.00;100749.56;5053333;28;20041;-63
2023/09/20 01:03:07;;;;;;;7.88;2.70;;;;;;;18.37;100.00;100739.34;5051609;28;20049;-64
2023/09/20 01:05:56;;;;;;;8.07;2.80;;;;;;;18.28;100.00;100737.38;5051068;28;20524;-62
2023/09/20 01:08:46;;;;;;;7.00;2.80;;;;;;;18.30;100.00;100748.91;5074068;28;20057;-64
2023/09/20 01:11:35;;;;;;;6.85;3.05;;;;;;;18.28;100.00;100742.09;5058653;28;20086;-63
2023/09/20 01:14:25;;;;;;;12.85;3.30;;;;;;;18.19;100.00;100744.84;5052446;28;20052;-63
2023/09/20 01:17:14;;;;;;;6.25;2.60;;;;;;;18.20;100.00;100743.69;5036857;28;20082;-63
2023/09/20 01:20:02;;;;;;;8.07;2.78;;;;;;;18.24;100.00;100738.34;5071740;28;20051;-64
2023/09/20 01:22:53;;;;;;;7.47;2.58;;;;;;;18.25;100.00;100737.22;5072082;28;20043;-63
2023/09/20 01:25:43;;;;;;;7.40;2.90;;;;;;;18.24;100.00;100730.88;5057582;28;20040;-63
2023/09/20 01:28:35;;;;;;;5.60;2.67;;;;;;;18.22;100.00;100732.34;5071599;28;20512;-64
2023/09/20 01:31:23;;;;;;;5.88;2.53;;;;;;;18.21;100.00;100730.72;5055669;28;20052;-63
2023/09/20 01:34:11;;;;;;;8.10;2.80;;;;;;;18.16;100.00;100723.41;5053755;28;20439;-63
2023/09/20 01:36:59;;;;;;;8.13;3.15;;;;;;;18.10;100.00;100739.28;5025425;28;20045;-62
2023/09/20 01:39:47;;;;;;;11.60;3.17;;;;;;;18.07;100.00;100725.34;5037671;28;20045;-63
2023/09/20 01:42:35;;;;;;;7.93;3.00;;;;;;;18.04;100.00;100728.75;5038273;28;20504;-63
2023/09/20 01:45:25;;;;;;;6.32;2.80;;;;;;;18.01;100.00;100721.09;5056852;28;20041;-63
2023/09/20 01:48:13;;;;;;;9.35;3.00;;;;;;;18.00;100.00;100711.22;5060292;28;20460;-64
2023/09/20 01:51:03;;;;;;;8.85;3.10;;;;;;;17.98;100.00;100719.00;5037797;28;20513;-62
2023/09/20 01:53:51;;;;;;;7.03;2.83;;;;;;;17.91;100.00;100716.69;5044984;28;20211;-63
2023/09/20 01:56:39;;;;;;;6.78;2.72;;;;;;;17.91;100.00;100713.13;5058131;28;20189;-62
2023/09/20 01:59:27;;;;;;;8.80;2.95;;;;;;;17.93;100.00;100708.13;5056916;28;20044;-64
2023/09/20 02:02:15;;;;;;;8.23;3.08;;;;;;;17.98;100.00;100711.53;5038017;28;20136;-63
2023/09/20 02:05:04;;;;;;;7.20;2.92;;;;;;;18.01;100.00;100707.31;5030649;28;20173;-63
2023/09/20 02:07:58;;;;;;;6.13;2.72;;;;;;;17.98;100.00;100697.75;5057905;28;20055;-64
2023/09/20 02:10:46;;;;;;;9.77;3.10;;;;;;;17.93;100.00;100686.06;5072836;28;20124;-61
2023/09/20 02:13:36;;;;;;;9.07;2.63;;;;;;;17.90;100.00;100684.75;5063803;28;20078;-64
2023/09/20 02:16:24;;;;;;;4.78;2.50;;;;;;;17.91;100.00;100682.81;5072407;28;20390;-63
2023/09/20 02:19:13;;;;;;;9.75;3.03;;;;;;;17.92;100.00;100676.16;5057609;28;20096;-63
2023/09/20 02:22:01;;;;;;;8.77;3.00;;;;;;;17.90;100.00;100673.72;5056810;28;20477;-62
2023/09/20 02:24:50;;;;;;;7.60;2.90;;;;;;;17.96;100.00;100674.38;5056189;28;20066;-64
2023/09/20 02:27:43;;;;;;;8.02;2.60;;;;;;;17.90;100.00;100681.19;5062182;28;20040;-63
2023/09/20 02:30:37;;;;;;;7.43;2.80;;;;;;;17.84;100.00;100672.25;5065934;28;20067;-61
2023/09/20 02:33:26;;;;;;;6.63;2.60;;;;;;;17.81;100.00;100672.91;5088836;28;20098;-61
2023/09/20 02:36:16;;;;;;;6.30;2.85;;;;;;;17.88;100.00;100664.97;5060588;28;20488;-63
2023/09/20 02:39:06;;;;;;;7.13;2.80;;;;;;;17.90;100.00;100670.19;5063614;28;20044;-62
2023/09/20 02:41:54;;;;;;;5.00;2.40;;;;;;;17.93;100.00;100661.25;5051663;28;20049;-65
2023/09/20 02:44:42;;;;;;;6.82;2.53;;;;;;;18.05;100.00;100664.19;5066557;28;20053;-60
2023/09/20 02:47:30;;;;;;;9.23;3.22;;;;;;;18.00;100.00;100658.84;5054735;28;20037;-63
2023/09/20 02:50:23;;;;;;;9.55;2.75;;;;;;;17.99;100.00;100655.28;5056651;28;20044;-63
2023/09/20 02:53:11;;;;;;;6.05;2.60;;;;;;;17.96;100.00;100655.09;5072153;28;20401;-63
2023/09/20 02:55:59;;;;;;;6.13;2.58;;;;;;;18.03;100.00;100653.47;5037764;28;20049;-63
2023/09/20 02:58:48;;;;;;;8.10;3.00;;;;;;;18.12;100.00;100661.75;5040417;28;20044;-64
2023/09/20 03:01:38;;;;;;;8.85;2.90;;;;;;;18.09;100.00;100657.72;5057745;28;20083;-63
2023/09/20 03:04:26;;;;;;;7.88;2.70;;;;;;;18.18;100.00;100643.91;5050094;28;20516;-64
2023/09/20 03:07:14;;;;;;;6.97;2.90;;;;;;;18.19;100.00;100640.03;5043811;28;20045;-64
2023/09/20 03:10:05;;;;;;;12.05;3.28;;;;;;;18.17;100.00;100645.06;5056863;28;20105;-64
2023/09/20 03:12:55;;;;;;;8.18;2.97;;;;;;;18.17;100.00;100642.31;5057473;28;20049;-63
2023/09/20 03:15:45;;;;;;;8.00;3.00;;;;;;;18.13;100.00;100635.81;5047922;28;20056;-63
2023/09/20 03:18:36;;;;;;;10.10;3.25;;;;;;;18.18;100.00;100630.13;5036693;28;20394;-63
2023/09/20 03:21:25;;;;;;;7.72;2.58;;;;;;;18.08;100.00;100635.97;5050884;28;20049;-62
2023/09/20 03:24:15;;;;;;;9.93;2.83;;;;;;;18.13;100.00;100633.03;5036304;28;20045;-63
2023/09/20 03:27:03;;;;;;;9.95;3.13;;;;;;;18.18;100.00;100627.38;5068606;28;20079;-63
2023/09/20 03:29:52;;;;;;;8.15;3.20;;;;;;;18.12;100.00;100627.88;5051156;28;20041;-63
2023/09/20 03:32:42;;;;;;;8.60;3.00;;;;;;;18.03;100.00;100625.09;5040032;28;20067;-63
2023/09/20 03:35:30;;;;;;;9.52;3.42;;;;;;;18.00;100.00;100629.31;5041841;28;20044;-63
2023/09/20 03:38:19;;;;;;;12.13;3.28;;;;;;;18.01;100.00;100638.38;5046694;28;20040;-63
2023/09/20 03:41:09;;;;;;;6.65;2.80;;;;;;;18.01;100.00;100638.38;5048491;28;20041;-63
2023/09/20 03:43:57;;;;;;;9.50;2.85;;;;;;;18.05;100.00;100645.69;5055455;28;20064;-64
2023/09/20 03:46:47;;;;;;;9.20;3.35;;;;;;;18.09;100.00;100637.59;5046349;28;20495;-63
2023/09/20 03:49:35;;;;;;;6.78;2.85;;;;;;;18.00;100.00;100637.59;5053512;28;20049;-63
2023/09/20 03:52:23;;;;;;;10.30;3.28;;;;;;;17.93;100.00;100647.47;5040550;28;20152;-66
2023/09/20 03:55:12;;;;;;;6.32;2.60;;;;;;;17.87;100.00;100641.28;5047870;28;20563;-63
2023/09/20 03:58:00;;;;;;;7.45;2.95;;;;;;;17.82;100.00;100639.50;5046011;28;20051;-64
2023/09/20 04:00:49;;;;;;;7.78;2.90;;;;;;;17.84;100.00;100634.47;5056332;28;20040;-63
2023/09/20 04:03:37;;;;;;;12.07;3.60;;;;;;;17.82;100.00;100635.91;5050489;28;20049;-62
2023/09/20 04:06:29;;;;;;;9.18;3.08;;;;;;;17.82;100.00;100634.00;5040063;28;20069;-63
2023/09/20 04:09:18;;;;;;;8.23;3.00;;;;;;;17.88;100.00;100638.22;5041556;28;20133;-63
2023/09/20 04:12:06;;;;;;;8.32;3.00;;;;;;;17.90;100.00;100631.59;5040524;28;20080;-63
2023/09/20 04:14:54;;;;;;;6.88;2.90;;;;;;;17.92;100.00;100632.88;5044885;28;20595;-62
2023/09/20 04:17:42;;;;;;;5.63;2.53;;;;;;;17.95;100.00;100631.44;5075115;28;20047;-63
2023/09/20 04:20:31;;;;;;;7.68;3.15;;;;;;;17.92;100.00;100634.81;5044606;28;20054;-63
2023/09/20 04:23:19;;;;;;;6.53;2.67;;;;;;;17.95;100.00;100626.72;5044199;28;20449;-61
2023/09/20 04:26:07;;;;;;;5.72;2.63;;;;;;;17.95;100.00;100623.16;5039093;28;20045;-62
2023/09/20 04:28:56;;;;;;;6.65;2.60;;;;;;;17.87;100.00;100622.81;5038720;28;20041;-63
2023/09/20 04:31:45;;;;;;;6.40;2.70;;;;;;;17.91;100.00;100620.22;5057620;28;20048;-66
2023/09/20 04:34:34;;;;;;;7.03;2.75;;;;;;;17.86;100.00;100615.66;5069519;28;20049;-65
2023/09/20 04:37:23;;;;;;;8.82;2.92;;;;;;;18.03;100.00;100605.81;5059520;28;20041;-64
2023/09/20 04:40:11;;;;;;;9.38;3.08;;;;;;;17.97;100.00;100610.66;5057168;28;20076;-65
2023/09/20 04:42:59;;;;;;;7.95;3.10;;;;;;;17.99;100.00;100607.56;5051757;28;20171;-64
2023/09/20 04:45:47;;;;;;;6.72;2.97;;;;;;;17.91;100.00;100606.44;5047161;28;20213;-64
2023/09/20 04:48:35;;;;;;;7.55;2.75;;;;;;;17.83;100.00;100608.06;5053359;28;20049;-64
2023/09/20 04:51:24;;;;;;;7.43;2.45;;;;;;;17.78;100.00;100601.88;5058055;28;20040;-65
2023/09/20 04:54:12;;;;;;;8.10;2.80;;;;;;;17.81;100.00;100609.50;5072814;28;20040;-65
2023/09/20 04:57:04;;;;;;;7.43;2.88;;;;;;;17.89;100.00;100611.47;5048507;28;20444;-63
2023/09/20 04:59:53;;;;;;;5.43;2.50;;;;;;;17.76;100.00;100604.94;5053801;28;20071;-64
2023/09/20 05:02:41;;;;;;;7.45;2.80;;;;;;;17.78;100.00;100607.38;5058737;28;20045;-64
2023/09/20 05:05:30;;;;;;;5.10;2.53;;;;;;;17.71;100.00;100604.28;5059463;28;20480;-64
2023/09/20 05:08:18;;;;;;;9.32;3.25;;;;;;;17.65;100.00;100598.09;5039226;28;20160;-64
2023/09/20 05:11:10;;;;;;;9.02;2.78;;;;;;;17.80;100.00;100605.94;5051572;28;20053;-65
2023/09/20 05:13:58;;;;;;;8.25;2.70;;;;;;;17.90;100.00;100604.81;5037718;28;20118;-64
2023/09/20 05:16:47;;;;;;;6.07;2.63;;;;;;;17.81;100.00;100601.25;5068031;28;20121;-63
2023/09/20 05:19:37;;;;;;;8.63;2.83;;;;;;;17.74;100.00;100612.69;5054839;28;20044;-63
2023/09/20 05:22:25;;;;;;;8.57;2.75;;;;;;;17.65;100.00;100603.59;5053582;28;20542;-64
2023/09/20 05:25:13;;;;;;;8.18;3.20;;;;;;;17.61;100.00;100610.91;5046140;28;20492;-64
2023/09/20 05:28:02;;;;;;;6.82;2.60;;;;;;;17.66;100.00;100608.81;5037910;28;20519;-64
2023/09/20 05:30:50;;;;;;;9.05;2.92;;;;;;;17.70;100.00;100600.69;5052973;28;20550;-64
2023/09/20 05:33:39;;;;;;;7.30;2.87;;;;;;;17.66;100.00;100595.03;4688622;28;10000760;-64
2023/09/20 05:36:27;;;;;;;4.93;2.47;;;;;;;17.84;100.00;100601.41;5062081;28;20053;-64
2023/09/20 05:39:18;;;;;;;8.95;2.67;;;;;;;17.82;100.00;100600.09;5066422;28;20138;-63
2023/09/20 05:42:06;;;;;;;9.15;3.00;;;;;;;17.93;100.00;100601.41;5050983;28;20076;-64
2023/09/20 05:44:55;;;;;;;9.55;2.72;;;;;;;17.79;100.00;100593.25;5034513;28;20087;-64
2023/09/20 05:47:44;;;;;;;6.80;2.83;;;;;;;17.72;100.00;100595.69;5041887;28;20052;-65
2023/09/20 05:50:35;;;;;;;7.95;2.53;;;;;;;17.75;100.00;100586.78;5033633;28;20059;-63
2023/09/20 05:53:23;;;;;;;8.02;2.70;;;;;;;17.83;100.00;100580.50;5052798;28;20075;-65
2023/09/20 05:56:11;;;;;;;6.05;2.65;;;;;;;17.85;100.00;100586.50;5060831;28;20044;-64
2023/09/20 05:59:01;;;;;;;8.07;2.92;;;;;;;17.82;100.00;100592.66;5050111;28;20033;-65
2023/09/20 06:01:49;;;;;;;4.75;2.75;;;;;;;17.97;100.00;100590.56;5069613;28;20052;-64
2023/09/20 06:04:39;;;;;;;6.30;2.88;;;;;;;17.93;100.00;100589.59;5038934;28;20149;-64
2023/09/20 06:07:27;;;;;;;6.22;2.75;;;;;;;17.91;100.00;100587.13;5064551;28;20075;-64
2023/09/20 06:10:17;;;;;;;8.90;3.08;;;;;;;17.82;100.00;100587.16;5046116;28;20123;-63
2023/09/20 06:13:07;;;;;;;5.95;2.35;;;;;;;17.78;100.00;100586.13;5052647;28;20527;-63
2023/09/20 06:15:54;;;;;;;6.85;2.83;;;;;;;17.88;100.00;100580.31;5041863;28;20178;-64
2023/09/20 06:18:43;;;;;;;6.43;2.80;;;;;;;17.95;100.00;100577.09;5070807;28;20549;-65
2023/09/20 06:21:50;;;;;;;7.43;2.50;;;;;;;17.90;100.00;100584.72;5058545;28;20512;-65
2023/09/20 06:24:38;;;;;;;7.20;3.20;;;;;;;17.88;100.00;100583.09;5071847;28;20130;-65
2023/09/20 06:27:32;;;;;;;4.95;2.20;;;;;;;17.80;100.00;100581.16;5072876;28;20049;-64
2023/09/20 06:30:21;;;;;;;8.15;2.95;;;;;;;17.78;100.00;100575.09;5057407;28;20550;-64
2023/09/20 06:33:10;;;;;;;10.05;3.60;;;;;;;17.77;100.00;100578.97;5070643;28;20056;-64
2023/09/20 06:35:59;;;;;;;9.63;3.15;;;;;;;17.88;100.00;100576.78;5070770;28;20049;-65
2023/09/20 06:38:48;;;;;;;6.97;2.90;;;;;;;18.10;100.00;100575.78;5069436;28;20037;-65
2023/09/20 06:41:37;;;;;;;11.60;3.00;;;;;;;18.17;100.00;100576.13;5056882;28;20052;-64
2023/09/20 06:44:35;;;;;;;8.82;2.85;;;;;;;18.26;100.00;100574.16;5072432;28;20092;-65
2023/09/20 06:47:23;;;;;;;7.97;2.85;;;;;;;18.37;100.00;100584.84;5059430;28;20489;-64
2023/09/20 06:50:15;;;;;;;7.05;2.47;;;;;;;18.29;100.00;100587.28;5065324;28;20064;-66
2023/09/20 06:53:04;;;;;;;4.90;2.67;;;;;;;18.27;100.00;100581.28;5046470;28;20049;-65
2023/09/20 06:55:53;;;;;;;17.00;4.38;;;;;;;18.34;100.00;100588.28;5071920;28;20053;-63
2023/09/20 06:58:41;;;;;;;21.42;5.70;;;;;;;18.47;100.00;100579.81;5063918;28;20045;-61
2023/09/20 07:01:29;;;;;;;12.30;4.55;;;;;;;18.40;100.00;100578.69;5080445;28;20049;-61
2023/09/20 07:04:18;;;;;;;13.30;3.85;;;;;;;18.40;100.00;100584.19;5079027;28;20095;-64
2023/09/20 07:07:07;;;;;;;11.30;3.33;;;;;;;18.36;100.00;100578.53;5068241;28;20464;-64
2023/09/20 07:10:00;;;;;;;15.40;4.90;;;;;;;18.23;100.00;100574.81;5053793;28;20078;-59
2023/09/20 07:12:49;;;;;;;22.52;5.75;;;;;;;18.45;100.00;100579.34;5057738;28;20168;-59
2023/09/20 07:15:39;;;;;;;22.58;6.35;;;;;;;18.48;100.00;100592.47;5058050;28;20083;-65
2023/09/20 07:18:28;;;;;;;15.50;4.38;;;;;;;18.63;100.00;100577.34;5056289;28;20059;-64
2023/09/20 07:21:16;;;;;;;11.30;4.03;;;;;;;18.58;100.00;100569.25;5076997;28;20051;-64
2023/09/20 07:24:06;;;;;;;17.45;4.53;;;;;;;18.46;100.00;100571.88;5076111;28;20530;-65
2023/09/20 07:26:58;;;;;;;16.05;4.60;;;;;;;18.62;100.00;100572.97;5067985;28;20445;-64
2023/09/20 07:29:48;;;;;;;13.95;3.97;;;;;;;18.43;100.00;100567.00;5071367;28;20072;-63
2023/09/20 07:32:36;;;;;;;13.15;4.00;;;;;;;18.55;100.00;100563.59;5054218;28;20048;-64
2023/09/20 07:35:28;;;;;;;13.63;4.30;;;;;;;18.82;100.00;100562.41;5048393;28;20643;-63
2023/09/20 07:38:27;;;;;;;14.82;4.38;;;;;;;18.76;100.00;100558.16;5039626;28;20437;-63
2023/09/20 07:41:17;;;;;;;11.90;3.97;;;;;;;18.96;100.00;100562.19;5050157;28;20045;-63
2023/09/20 07:44:07;;;;;;;10.30;3.80;;;;;;;19.09;100.00;100574.94;5057061;28;20424;-63
2023/09/20 07:46:57;;;;;;;13.32;3.15;;;;;;;18.99;100.00;100578.88;5063111;28;20037;-63
2023/09/20 07:49:45;;;;;;;14.63;4.00;;;;;;;18.99;100.00;100564.28;5035127;28;20041;-64
2023/09/20 07:52:35;;;;;;;15.18;4.38;;;;;;;18.87;100.00;100562.22;5074167;28;20057;-64
2023/09/20 07:55:23;;;;;;;10.23;3.42;;;;;;;18.94;100.00;100557.78;5070183;28;20052;-65
2023/09/20 07:58:13;;;;;;;8.30;2.92;;;;;;;18.86;100.00;100560.59;5054936;28;20083;-65
2023/09/20 08:01:12;;;;;;;7.78;3.15;;;;;;;18.91;100.00;100561.22;5047631;28;20372;-64
2023/09/20 08:04:06;;;;;;;9.48;3.58;;;;;;;18.78;100.00;100555.91;5074989;28;20040;-65
2023/09/20 08:06:54;;;;;;;8.32;3.20;;;;;;;19.01;100.00;100551.75;5053841;28;20049;-64
2023/09/20 08:09:42;;;;;;;14.50;3.70;;;;;;;19.16;100.00;100556.72;5039945;28;20142;-64
2023/09/20 08:12:31;;;;;;;8.68;3.42;;;;;;;19.23;100.00;100558.16;5055284;28;20045;-65
2023/09/20 08:15:20;;;;;;;11.60;3.20;;;;;;;19.15;100.00;100557.06;5039980;28;20416;-65
2023/09/20 08:21:15;;;;;;;5.05;2.15;;;;;;;19.18;100.00;100556.41;5062186;28;20056;-64
2023/09/20 09:01:37;;;;;;;6.10;3.17;;;;;;;19.01;100.00;100582.13;5054008;28;20467;-64
2023/09/20 09:04:25;;;;;;;6.07;2.55;;;;;;;19.23;100.00;100594.06;5052010;28;20048;-64
2023/09/20 09:07:14;;;;;;;7.65;2.65;;;;;;;19.52;100.00;100596.81;5072977;28;20503;-64
2023/09/20 09:10:02;;;;;;;6.40;3.08;;;;;;;19.52;100.00;100585.78;5062586;28;20045;-64
2023/09/20 09:12:50;;;;;;;9.10;3.15;;;;;;;19.59;100.00;100586.06;5072223;28;20048;-64
2023/09/20 09:15:38;;;;;;;8.52;2.53;;;;;;;19.67;100.00;100587.13;5071010;28;20040;-64
2023/09/20 09:18:26;;;;;;;7.93;3.72;;;;;;;19.75;99.90;100577.22;5051505;28;20110;-64
2023/09/20 09:21:17;;;;;;;8.45;3.03;;;;;;;19.68;100.00;100583.28;5049335;28;20047;-65
2023/09/20 09:24:05;;;;;;;7.90;3.22;;;;;;;19.81;99.93;100580.59;5073112;28;20052;-63
2023/09/20 09:27:08;;;;;;;5.57;3.20;;;;;;;19.99;98.42;100582.88;5052458;28;20045;-65
2023/09/20 09:29:56;;;;;;;9.63;3.00;;;;;;;19.76;99.81;100581.59;5066178;28;20049;-64
2023/09/20 09:32:47;;;;;;;10.75;3.33;;;;;;;19.53;100.00;100584.66;5039989;28;20076;-63
2023/09/20 09:35:37;;;;;;;5.07;2.72;;;;;;;19.54;100.00;100594.53;5073096;28;20078;-65
2023/09/20 09:38:35;;;;;;;9.10;3.42;;;;;;;19.47;100.00;100591.50;5056783;28;20048;-64
2023/09/20 09:41:24;;;;;;;8.55;3.08;;;;;;;19.35;100.00;100591.41;5057837;28;20515;-64
2023/09/20 09:44:12;;;;;;;4.93;2.85;;;;;;;19.26;100.00;100585.09;5057904;28;20520;-65
2023/09/20 09:47:01;;;;;;;7.93;2.88;;;;;;;19.39;100.00;100581.31;5056988;28;20087;-64
2023/09/20 09:49:49;;;;;;;7.35;3.20;;;;;;;19.57;100.00;100573.72;5065137;28;20119;-64
2023/09/20 09:52:40;;;;;;;6.18;2.80;;;;;;;19.54;100.00;100561.38;5070978;28;20093;-65
2023/09/20 09:55:28;;;;;;;7.30;3.08;;;;;;;19.53;100.00;100558.94;5058873;28;20052;-65
2023/09/20 09:58:17;;;;;;;3.67;2.30;;;;;;;19.49;100.00;100563.53;5065410;28;20153;-64
2023/09/20 10:01:05;;;;;;;6.15;3.25;;;;;;;19.81;100.00;100550.97;5061382;28;20045;-65
2023/09/20 10:03:54;;;;;;;10.98;3.47;;;;;;;19.83;100.00;100551.44;5057131;28;20397;-64
2023/09/20 10:06:47;;;;;;;10.25;5.70;;;;;;;19.85;100.00;100549.16;5072046;28;20036;-64
2023/09/20 10:09:39;;;;;;;11.00;5.30;;;;;;;19.70;100.00;100547.00;5071601;28;20087;-65
2023/09/20 10:12:28;;;;;;;10.20;4.35;;;;;;;19.64;100.00;100548.31;5046923;28;20072;-64
2023/09/20 10:15:16;;;;;;;24.27;9.02;;;;;;;19.83;100.00;100534.88;5037333;28;20049;-64
2023/09/20 10:18:05;;;;;;;26.30;10.13;;;;;;;20.03;100.00;100538.75;5037610;28;20084;-64
2023/09/20 10:21:14;;;;;;;10.95;5.65;;;;;;;20.22;99.61;100546.56;5044412;28;20064;-65
2023/09/20 10:24:08;;;;;;;15.43;6.80;;;;;;;20.08;100.00;100546.03;5052042;28;20048;-66
2023/09/20 10:27:03;;;;;;;17.10;6.53;;;;;;;20.06;99.90;100543.63;5043388;28;20178;-63
2023/09/20 10:30:10;;;;;;;14.70;7.57;;;;;;;20.05;100.00;100530.94;5053800;28;20103;-66
2023/09/20 10:33:02;;;;;;;11.75;4.00;;;;;;;19.98;100.00;100528.72;5044299;28;20432;-65
2023/09/20 10:35:51;;;;;;;7.18;3.15;;;;;;;19.83;100.00;100529.34;5042298;28;20048;-65
2023/09/20 10:38:40;;;;;;;13.63;5.78;;;;;;;19.85;100.00;100527.03;5050330;28;20103;-64
2023/09/20 10:41:40;;;;;;;13.27;6.43;;;;;;;20.07;100.00;100534.16;5037244;28;20075;-63
2023/09/20 10:44:30;;;;;;;13.30;6.28;;;;;;;20.11;100.00;100515.75;5038258;28;20147;-65
2023/09/20 10:47:19;;;;;;;11.57;4.55;;;;;;;20.27;100.00;100520.63;5038614;28;20531;-64
2023/09/20 10:50:11;;;;;;;10.15;4.45;;;;;;;20.39;99.07;100512.38;5063591;28;20040;-65
2023/09/20 10:53:00;;;;;;;9.60;5.03;;;;;;;20.43;98.41;100516.88;5051450;28;20135;-65
2023/09/20 10:55:49;;;;;;;9.13;3.60;;;;;;;20.50;97.94;100507.22;5052029;28;20045;-64
2023/09/20 10:58:42;;;;;;;9.13;4.45;;;;;;;20.66;96.24;100499.91;5036815;28;20045;-66
2023/09/20 11:01:32;;;;;;;8.40;3.90;;;;;;;20.43;96.31;100502.25;5051586;28;20492;-65
2023/09/20 11:04:20;;;;;;;11.10;3.92;;;;;;;20.46;97.88;100500.75;5045953;28;20052;-64
2023/09/20 11:07:09;;;;;;;8.50;3.70;;;;;;;20.36;97.43;100502.78;5055793;28;20117;-65
2023/09/20 11:09:58;;;;;;;10.32;3.55;;;;;;;20.49;98.17;100505.59;5069118;28;20510;-65
2023/09/20 11:12:46;;;;;;;8.55;3.03;;;;;;;20.48;96.51;100487.38;5069974;28;20045;-65
2023/09/20 11:15:40;;;;;;;7.65;3.45;;;;;;;20.43;97.16;100502.25;5057678;28;20045;-65
2023/09/20 11:18:28;;;;;;;9.40;4.20;;;;;;;20.44;97.65;100495.53;5028403;28;20519;-65
2023/09/20 11:21:19;;;;;;;10.07;3.47;;;;;;;20.51;97.69;100492.22;5054078;28;20099;-64
2023/09/20 11:24:10;;;;;;;6.00;2.80;;;;;;;20.53;95.62;100501.00;5046138;28;20052;-64
2023/09/20 11:26:59;;;;;;;10.77;3.92;;;;;;;20.50;96.93;100490.63;5057590;28;20060;-64
2023/09/20 11:29:49;;;;;;;8.18;3.38;;;;;;;20.47;97.63;100492.13;5046882;28;20080;-64
2023/09/20 11:32:40;;;;;;;8.18;3.55;;;;;;;20.43;97.53;100485.63;5068250;28;20045;-59
2023/09/20 11:35:38;;;;;;;7.95;3.75;;;;;;;20.42;97.78;100489.56;5052444;28;20412;-62
2023/09/20 11:38:27;;;;;;;7.53;3.35;;;;;;;20.61;96.78;100480.72;5076842;28;20051;-62
2023/09/20 11:41:16;;;;;;;9.95;3.60;;;;;;;20.81;94.86;100484.56;5090152;28;20059;-59
2023/09/20 11:44:06;;;;;;;3.95;2.58;;;;;;;20.79;95.32;100490.44;5075860;28;20056;-62
2023/09/20 11:46:55;;;;;;;8.40;3.30;;;;;;;20.80;93.76;100497.59;5081685;28;20064;-64
2023/09/20 11:49:47;;;;;;;5.00;2.33;;;;;;;20.73;94.55;100486.28;5038732;28;20504;-64
2023/09/20 11:52:37;;;;;;;4.47;2.25;;;;;;;20.76;94.86;100493.91;5039420;28;20044;-65
2023/09/20 11:55:26;;;;;;;5.93;2.35;;;;;;;20.84;94.42;100492.97;5040103;28;20139;-64
2023/09/20 11:58:20;;;;;;;6.90;2.72;;;;;;;20.87;92.57;100483.16;5042561;28;20041;-65
2023/09/20 12:01:08;;;;;;;5.60;2.60;;;;;;;20.77;93.21;100483.63;5053749;28;20049;-65
2023/09/20 12:03:57;;;;;;;5.93;2.38;;;;;;;20.72;94.61;100500.47;5040018;28;20108;-66
2023/09/20 12:06:45;;;;;;;5.05;2.70;;;;;;;20.69;94.70;100490.91;5028531;28;20599;-65
2023/09/20 12:09:34;;;;;;;8.23;3.05;;;;;;;20.68;94.31;100494.81;5071281;28;20609;-65
2023/09/20 12:12:24;;;;;;;6.82;2.15;;;;;;;20.65;95.10;100489.97;5060805;28;20044;-65
2023/09/20 12:15:12;;;;;;;4.70;2.70;;;;;;;20.82;93.82;100486.97;5059665;28;20127;-65
2023/09/20 12:18:00;;;;;;;6.65;2.70;;;;;;;20.89;92.10;100485.59;5054174;28;20049;-65
2023/09/20 12:20:48;;;;;;;7.43;2.15;;;;;;;20.72;92.42;100470.81;5053814;28;20052;-65
2023/09/20 12:23:40;;;;;;;3.17;2.00;;;;;;;20.65;93.67;100481.66;5039820;28;20397;-64
2023/09/20 12:26:28;;;;;;;3.60;1.92;;;;;;;20.75;93.99;100475.66;5053897;28;20049;-64
2023/09/20 12:29:16;;;;;;;4.35;2.22;;;;;;;20.95;91.90;100475.88;5043890;28;20044;-65
2023/09/20 12:32:04;;;;;;;4.00;2.40;;;;;;;20.99;91.80;100474.06;5074114;28;20059;-65
2023/09/20 12:34:55;;;;;;;7.32;2.70;;;;;;;20.97;90.50;100477.19;5059920;28;20088;-64
2023/09/20 12:37:44;;;;;;;3.38;2.10;;;;;;;20.99;92.00;100469.31;4999327;28;20075;-65
2023/09/20 12:40:32;;;;;;;7.22;2.35;;;;;;;20.94;91.61;100472.31;5042718;28;20072;-65
2023/09/20 12:43:20;;;;;;;5.45;2.13;;;;;;;20.87;92.13;100472.09;5053530;28;20061;-65
2023/09/20 12:46:09;;;;;;;3.53;2.30;;;;;;;20.77;91.00;100461.47;5069032;28;20493;-64
2023/09/20 12:48:57;;;;;;;4.65;2.58;;;;;;;20.82;91.94;100467.59;5073300;28;20127;-65
2023/09/20 12:51:46;;;;;;;6.07;2.60;;;;;;;20.95;91.49;100460.09;5071016;28;20040;-65
2023/09/20 12:54:34;;;;;;;4.57;2.22;;;;;;;21.11;90.78;100451.88;5058748;28;20040;-65
2023/09/20 12:57:25;;;;;;;5.25;2.58;;;;;;;21.01;87.78;100446.81;5071020;28;20049;-65
2023/09/20 13:00:14;;;;;;;8.95;2.55;;;;;;;20.95;91.25;100453.72;5051405;28;20065;-65
2023/09/20 13:03:17;;;;;;;3.58;2.30;;;;;;;20.92;91.52;100441.38;5036963;28;20056;-65
2023/09/20 13:06:05;;;;;;;4.90;2.30;;;;;;;20.99;91.08;100435.28;5049587;28;20092;-65
2023/09/20 13:08:53;;;;;;;4.57;2.28;;;;;;;21.10;90.28;100433.66;5052665;28;20132;-66
2023/09/20 13:11:46;;;;;;;4.50;1.90;;;;;;;21.14;89.84;100429.03;5045821;28;20123;-65
2023/09/20 13:14:35;;;;;;;5.10;2.25;;;;;;;21.11;88.75;100428.91;5055595;28;20064;-65
2023/09/20 13:17:23;;;;;;;5.57;2.28;;;;;;;21.04;89.15;100432.25;5072107;28;20499;-64
2023/09/20 13:20:15;;;;;;;5.53;2.17;;;;;;;20.97;90.23;100424.56;5058099;28;20044;-65
2023/09/20 13:23:07;;;;;;;5.38;2.20;;;;;;;20.94;90.91;100411.38;5068937;28;20060;-65
2023/09/20 13:25:56;;;;;;;7.63;2.95;;;;;;;21.03;88.27;100419.59;5070732;28;20518;-65
2023/09/20 13:28:44;;;;;;;4.72;2.40;;;;;;;21.09;88.80;100412.63;5057994;28;20067;-65
2023/09/20 13:31:38;;;;;;;4.50;2.35;;;;;;;21.13;89.06;100404.44;5057271;28;20047;-66
2023/09/20 13:34:26;;;;;;;10.38;2.70;;;;;;;21.03;89.42;100403.75;5054810;28;20032;-64
2023/09/20 13:37:14;;;;;;;177.32;13.88;;;;;;;20.94;90.00;100402.28;5071773;28;20131;-65
2023/09/20 13:40:04;;;;;;;5.53;2.42;;;;;;;20.93;90.88;100397.91;5058912;28;20082;-65